sensor_id;sensor_type;location;lat;lon;timestamp;P1;durP1;ratioP1;P2;durP2;ratioP2
19209;SDS011;9738;51.654;14.238;2022-08-14T00:00:13;5.67;;;3.93;;
19209;SDS011;9738;51.654;14.238;2022-08-14T00:02:41;7.23;;;4.87;;
19209;SDS011;9738;51.654;14.238;2022-08-14T00:05:09;5.03;;;3.60;;
19209;SDS011;9738;51.654;14.238;2022-08-14T00:07:36;4.43;;;3.80;;
19209;SDS011;9738;51.654;14.238;2022-08-14T00:10:05;4.23;;;3.37;;
19209;SDS011;9738;51.654;14.238;2022-08-14T00:12:34;7.27;;;4.43;;
19209;SDS011;9738;51.654;14.238;2022-08-14T00:15:03;6.23;;;3.77;;
19209;SDS011;9738;51.654;14.238;2022-08-14T00:17:34;4.73;;;3.43;;
19209;SDS011;9738;51.654;14.238;2022-08-14T00:19:59;5.67;;;3.67;;
19209;SDS011;9738;51.654;14.238;2022-08-14T00:22:25;4.83;;;3.80;;
19209;SDS011;9738;51.654;14.238;2022-08-14T00:24:51;4.53;;;3.70;;
19209;SDS011;9738;51.654;14.238;2022-08-14T00:27:17;5.70;;;4.07;;
19209;SDS011;9738;51.654;14.238;2022-08-14T00:29:43;5.57;;;3.80;;
19209;SDS011;9738;51.654;14.238;2022-08-14T00:32:10;5.50;;;4.10;;
19209;SDS011;9738;51.654;14.238;2022-08-14T00:34:37;5.67;;;3.97;;
19209;SDS011;9738;51.654;14.238;2022-08-14T00:37:03;7.77;;;4.27;;
19209;SDS011;9738;51.654;14.238;2022-08-14T00:39:30;6.67;;;4.00;;
19209;SDS011;9738;51.654;14.238;2022-08-14T00:41:56;4.97;;;4.10;;
19209;SDS011;9738;51.654;14.238;2022-08-14T00:44:22;6.53;;;4.80;;
19209;SDS011;9738;51.654;14.238;2022-08-14T00:46:48;7.90;;;5.07;;
19209;SDS011;9738;51.654;14.238;2022-08-14T00:49:14;6.07;;;4.90;;
19209;SDS011;9738;51.654;14.238;2022-08-14T00:51:41;5.50;;;4.70;;
19209;SDS011;9738;51.654;14.238;2022-08-14T00:54:10;5.63;;;4.50;;
19209;SDS011;9738;51.654;14.238;2022-08-14T00:56:37;6.50;;;3.80;;
19209;SDS011;9738;51.654;14.238;2022-08-14T00:59:03;6.20;;;4.87;;
19209;SDS011;9738;51.654;14.238;2022-08-14T01:01:29;6.80;;;3.90;;
19209;SDS011;9738;51.654;14.238;2022-08-14T01:03:57;6.33;;;4.13;;
19209;SDS011;9738;51.654;14.238;2022-08-14T01:06:26;6.60;;;4.53;;
19209;SDS011;9738;51.654;14.238;2022-08-14T01:08:53;6.73;;;3.80;;
19209;SDS011;9738;51.654;14.238;2022-08-14T01:11:20;5.23;;;4.73;;
19209;SDS011;9738;51.654;14.238;2022-08-14T01:13:46;6.60;;;4.67;;
19209;SDS011;9738;51.654;14.238;2022-08-14T01:16:15;5.77;;;3.57;;
19209;SDS011;9738;51.654;14.238;2022-08-14T01:18:45;5.90;;;4.23;;
19209;SDS011;9738;51.654;14.238;2022-08-14T01:21:30;5.87;;;4.47;;
19209;SDS011;9738;51.654;14.238;2022-08-14T01:23:57;7.93;;;4.37;;
19209;SDS011;9738;51.654;14.238;2022-08-14T01:26:25;8.47;;;3.83;;
19209;SDS011;9738;51.654;14.238;2022-08-14T01:28:52;7.43;;;3.87;;
19209;SDS011;9738;51.654;14.238;2022-08-14T01:31:23;5.97;;;3.93;;
19209;SDS011;9738;51.654;14.238;2022-08-14T01:33:52;5.00;;;4.13;;
19209;SDS011;9738;51.654;14.238;2022-08-14T01:36:21;5.73;;;4.40;;
19209;SDS011;9738;51.654;14.238;2022-08-14T01:38:48;6.77;;;4.87;;
19209;SDS011;9738;51.654;14.238;2022-08-14T01:41:17;6.63;;;4.23;;
19209;SDS011;9738;51.654;14.238;2022-08-14T01:43:46;6.13;;;4.27;;
19209;SDS011;9738;51.654;14.238;2022-08-14T01:46:18;5.67;;;3.87;;
19209;SDS011;9738;51.654;14.238;2022-08-14T01:48:46;7.20;;;4.40;;
19209;SDS011;9738;51.654;14.238;2022-08-14T01:51:14;6.97;;;4.57;;
19209;SDS011;9738;51.654;14.238;2022-08-14T01:53:43;5.57;;;4.40;;
19209;SDS011;9738;51.654;14.238;2022-08-14T01:56:13;7.43;;;4.03;;
19209;SDS011;9738;51.654;14.238;2022-08-14T01:58:46;5.63;;;4.37;;
19209;SDS011;9738;51.654;14.238;2022-08-14T02:01:15;5.43;;;4.23;;
19209;SDS011;9738;51.654;14.238;2022-08-14T02:03:42;5.77;;;4.33;;
19209;SDS011;9738;51.654;14.238;2022-08-14T02:06:09;5.20;;;3.83;;
19209;SDS011;9738;51.654;14.238;2022-08-14T02:08:36;4.50;;;3.80;;
19209;SDS011;9738;51.654;14.238;2022-08-14T02:11:03;5.60;;;3.73;;
19209;SDS011;9738;51.654;14.238;2022-08-14T02:13:48;5.57;;;4.37;;
19209;SDS011;9738;51.654;14.238;2022-08-14T02:16:24;5.57;;;4.13;;
19209;SDS011;9738;51.654;14.238;2022-08-14T02:18:55;6.13;;;4.83;;
19209;SDS011;9738;51.654;14.238;2022-08-14T02:21:22;5.27;;;3.60;;
19209;SDS011;9738;51.654;14.238;2022-08-14T02:23:49;5.60;;;4.20;;
19209;SDS011;9738;51.654;14.238;2022-08-14T02:26:24;5.37;;;4.33;;
19209;SDS011;9738;51.654;14.238;2022-08-14T02:28:53;6.63;;;4.80;;
19209;SDS011;9738;51.654;14.238;2022-08-14T02:31:25;6.33;;;4.53;;
19209;SDS011;9738;51.654;14.238;2022-08-14T02:33:56;5.17;;;4.40;;
19209;SDS011;9738;51.654;14.238;2022-08-14T02:36:22;7.30;;;5.00;;
19209;SDS011;9738;51.654;14.238;2022-08-14T02:38:49;7.43;;;4.90;;
19209;SDS011;9738;51.654;14.238;2022-08-14T02:41:15;4.73;;;3.47;;
19209;SDS011;9738;51.654;14.238;2022-08-14T02:43:41;4.83;;;4.23;;
19209;SDS011;9738;51.654;14.238;2022-08-14T02:46:08;6.47;;;4.43;;
19209;SDS011;9738;51.654;14.238;2022-08-14T02:48:39;6.20;;;3.93;;
19209;SDS011;9738;51.654;14.238;2022-08-14T02:51:07;5.60;;;3.90;;
19209;SDS011;9738;51.654;14.238;2022-08-14T02:53:40;5.97;;;4.23;;
19209;SDS011;9738;51.654;14.238;2022-08-14T02:56:08;6.20;;;4.63;;
19209;SDS011;9738;51.654;14.238;2022-08-14T02:58:37;7.40;;;4.47;;
19209;SDS011;9738;51.654;14.238;2022-08-14T03:01:05;7.00;;;4.47;;
19209;SDS011;9738;51.654;14.238;2022-08-14T03:03:33;6.37;;;4.40;;
19209;SDS011;9738;51.654;14.238;2022-08-14T03:06:05;7.17;;;4.90;;
19209;SDS011;9738;51.654;14.238;2022-08-14T03:08:34;7.13;;;4.70;;
19209;SDS011;9738;51.654;14.238;2022-08-14T03:11:03;6.57;;;4.60;;
19209;SDS011;9738;51.654;14.238;2022-08-14T03:13:32;8.93;;;5.10;;
19209;SDS011;9738;51.654;14.238;2022-08-14T03:16:01;5.60;;;4.20;;
19209;SDS011;9738;51.654;14.238;2022-08-14T03:18:29;7.97;;;4.83;;
19209;SDS011;9738;51.654;14.238;2022-08-14T03:20:55;6.63;;;3.47;;
19209;SDS011;9738;51.654;14.238;2022-08-14T03:23:22;7.13;;;4.73;;
19209;SDS011;9738;51.654;14.238;2022-08-14T03:25:49;4.70;;;4.10;;
19209;SDS011;9738;51.654;14.238;2022-08-14T03:28:15;5.93;;;4.50;;
19209;SDS011;9738;51.654;14.238;2022-08-14T03:30:41;7.23;;;4.43;;
19209;SDS011;9738;51.654;14.238;2022-08-14T03:33:08;8.83;;;4.53;;
19209;SDS011;9738;51.654;14.238;2022-08-14T03:35:35;6.53;;;4.00;;
19209;SDS011;9738;51.654;14.238;2022-08-14T03:38:09;6.00;;;4.00;;
19209;SDS011;9738;51.654;14.238;2022-08-14T03:40:39;5.47;;;4.00;;
19209;SDS011;9738;51.654;14.238;2022-08-14T03:43:06;4.37;;;3.63;;
19209;SDS011;9738;51.654;14.238;2022-08-14T03:45:34;5.77;;;4.00;;
19209;SDS011;9738;51.654;14.238;2022-08-14T03:48:02;4.90;;;3.97;;
19209;SDS011;9738;51.654;14.238;2022-08-14T03:50:45;7.37;;;4.23;;
19209;SDS011;9738;51.654;14.238;2022-08-14T03:53:13;5.73;;;4.17;;
19209;SDS011;9738;51.654;14.238;2022-08-14T03:55:40;5.50;;;4.70;;
19209;SDS011;9738;51.654;14.238;2022-08-14T03:58:07;5.70;;;4.30;;
19209;SDS011;9738;51.654;14.238;2022-08-14T04:00:34;5.33;;;3.90;;
19209;SDS011;9738;51.654;14.238;2022-08-14T04:03:05;5.20;;;3.83;;
19209;SDS011;9738;51.654;14.238;2022-08-14T04:05:34;5.30;;;3.93;;
19209;SDS011;9738;51.654;14.238;2022-08-14T04:08:02;5.87;;;3.70;;
19209;SDS011;9738;51.654;14.238;2022-08-14T04:10:28;6.63;;;3.93;;
19209;SDS011;9738;51.654;14.238;2022-08-14T04:12:54;5.93;;;4.63;;
19209;SDS011;9738;51.654;14.238;2022-08-14T04:15:24;6.00;;;4.63;;
19209;SDS011;9738;51.654;14.238;2022-08-14T04:17:51;6.00;;;4.37;;
19209;SDS011;9738;51.654;14.238;2022-08-14T04:20:19;6.90;;;4.77;;
19209;SDS011;9738;51.654;14.238;2022-08-14T04:22:46;6.37;;;3.77;;
19209;SDS011;9738;51.654;14.238;2022-08-14T04:25:15;5.97;;;4.37;;
19209;SDS011;9738;51.654;14.238;2022-08-14T04:27:41;6.70;;;4.77;;
19209;SDS011;9738;51.654;14.238;2022-08-14T04:30:07;5.97;;;4.40;;
19209;SDS011;9738;51.654;14.238;2022-08-14T04:32:33;7.20;;;5.10;;
19209;SDS011;9738;51.654;14.238;2022-08-14T04:35:00;6.53;;;4.90;;
19209;SDS011;9738;51.654;14.238;2022-08-14T04:37:26;5.53;;;4.47;;
19209;SDS011;9738;51.654;14.238;2022-08-14T04:40:12;8.67;;;5.00;;
19209;SDS011;9738;51.654;14.238;2022-08-14T04:42:57;6.03;;;4.90;;
19209;SDS011;9738;51.654;14.238;2022-08-14T04:45:43;7.37;;;4.70;;
19209;SDS011;9738;51.654;14.238;2022-08-14T04:48:10;8.17;;;5.63;;
19209;SDS011;9738;51.654;14.238;2022-08-14T04:50:44;7.03;;;4.70;;
19209;SDS011;9738;51.654;14.238;2022-08-14T04:53:14;7.47;;;5.07;;
19209;SDS011;9738;51.654;14.238;2022-08-14T04:55:42;6.53;;;4.70;;
19209;SDS011;9738;51.654;14.238;2022-08-14T04:58:20;8.23;;;5.23;;
19209;SDS011;9738;51.654;14.238;2022-08-14T05:00:49;10.07;;;6.40;;
19209;SDS011;9738;51.654;14.238;2022-08-14T05:03:17;8.37;;;5.63;;
19209;SDS011;9738;51.654;14.238;2022-08-14T05:05:48;7.83;;;6.23;;
19209;SDS011;9738;51.654;14.238;2022-08-14T05:08:17;8.33;;;6.13;;
19209;SDS011;9738;51.654;14.238;2022-08-14T05:10:44;10.17;;;6.90;;
19209;SDS011;9738;51.654;14.238;2022-08-14T05:13:15;10.57;;;7.27;;
19209;SDS011;9738;51.654;14.238;2022-08-14T05:15:41;11.17;;;7.57;;
19209;SDS011;9738;51.654;14.238;2022-08-14T05:18:10;11.77;;;7.00;;
19209;SDS011;9738;51.654;14.238;2022-08-14T05:20:38;9.83;;;7.50;;
19209;SDS011;9738;51.654;14.238;2022-08-14T05:23:07;8.20;;;6.60;;
19209;SDS011;9738;51.654;14.238;2022-08-14T05:25:33;12.03;;;8.23;;
19209;SDS011;9738;51.654;14.238;2022-08-14T05:28:13;14.30;;;8.13;;
19209;SDS011;9738;51.654;14.238;2022-08-14T05:30:46;13.10;;;8.57;;
19209;SDS011;9738;51.654;14.238;2022-08-14T05:33:14;12.40;;;9.00;;
19209;SDS011;9738;51.654;14.238;2022-08-14T05:35:41;13.60;;;8.67;;
19209;SDS011;9738;51.654;14.238;2022-08-14T05:38:13;13.57;;;8.37;;
19209;SDS011;9738;51.654;14.238;2022-08-14T05:40:44;12.10;;;8.93;;
19209;SDS011;9738;51.654;14.238;2022-08-14T05:43:12;13.63;;;8.57;;
19209;SDS011;9738;51.654;14.238;2022-08-14T05:45:39;15.00;;;9.27;;
19209;SDS011;9738;51.654;14.238;2022-08-14T05:48:05;13.73;;;9.37;;
19209;SDS011;9738;51.654;14.238;2022-08-14T05:50:32;11.13;;;8.30;;
19209;SDS011;9738;51.654;14.238;2022-08-14T05:52:59;11.53;;;8.77;;
19209;SDS011;9738;51.654;14.238;2022-08-14T05:55:26;12.67;;;9.37;;
19209;SDS011;9738;51.654;14.238;2022-08-14T05:57:54;14.13;;;9.23;;
19209;SDS011;9738;51.654;14.238;2022-08-14T06:00:26;16.93;;;11.17;;
19209;SDS011;9738;51.654;14.238;2022-08-14T06:02:54;16.63;;;9.60;;
19209;SDS011;9738;51.654;14.238;2022-08-14T06:05:21;13.97;;;9.53;;
19209;SDS011;9738;51.654;14.238;2022-08-14T06:07:48;13.30;;;8.87;;
19209;SDS011;9738;51.654;14.238;2022-08-14T06:10:14;15.83;;;9.40;;
19209;SDS011;9738;51.654;14.238;2022-08-14T06:12:40;12.57;;;8.47;;
19209;SDS011;9738;51.654;14.238;2022-08-14T06:15:06;14.67;;;9.60;;
19209;SDS011;9738;51.654;14.238;2022-08-14T06:17:46;15.83;;;10.93;;
19209;SDS011;9738;51.654;14.238;2022-08-14T06:20:16;15.50;;;9.70;;
19209;SDS011;9738;51.654;14.238;2022-08-14T06:22:44;15.70;;;11.10;;
19209;SDS011;9738;51.654;14.238;2022-08-14T06:25:12;14.53;;;9.97;;
19209;SDS011;9738;51.654;14.238;2022-08-14T06:27:43;12.80;;;9.37;;
19209;SDS011;9738;51.654;14.238;2022-08-14T06:30:12;14.57;;;9.27;;
19209;SDS011;9738;51.654;14.238;2022-08-14T06:32:40;14.63;;;9.50;;
19209;SDS011;9738;51.654;14.238;2022-08-14T06:35:06;16.37;;;9.63;;
19209;SDS011;9738;51.654;14.238;2022-08-14T06:37:40;16.43;;;11.17;;
19209;SDS011;9738;51.654;14.238;2022-08-14T06:40:07;14.10;;;9.03;;
19209;SDS011;9738;51.654;14.238;2022-08-14T06:42:34;10.10;;;8.27;;
19209;SDS011;9738;51.654;14.238;2022-08-14T06:45:00;11.40;;;8.17;;
19209;SDS011;9738;51.654;14.238;2022-08-14T06:47:26;11.63;;;9.13;;
19209;SDS011;9738;51.654;14.238;2022-08-14T06:49:52;11.23;;;8.77;;
19209;SDS011;9738;51.654;14.238;2022-08-14T06:52:18;11.00;;;8.67;;
19209;SDS011;9738;51.654;14.238;2022-08-14T06:54:44;11.90;;;8.50;;
19209;SDS011;9738;51.654;14.238;2022-08-14T06:57:10;10.67;;;8.27;;
19209;SDS011;9738;51.654;14.238;2022-08-14T06:59:36;8.63;;;7.33;;
19209;SDS011;9738;51.654;14.238;2022-08-14T07:02:02;8.10;;;6.63;;
19209;SDS011;9738;51.654;14.238;2022-08-14T07:04:47;6.67;;;5.97;;
19209;SDS011;9738;51.654;14.238;2022-08-14T07:07:36;6.18;;;5.45;;
19209;SDS011;9738;51.654;14.238;2022-08-14T07:10:03;6.18;;;5.30;;
19209;SDS011;9738;51.654;14.238;2022-08-14T07:12:30;6.78;;;5.38;;
19209;SDS011;9738;51.654;14.238;2022-08-14T07:14:57;6.88;;;5.70;;
19209;SDS011;9738;51.654;14.238;2022-08-14T07:17:23;9.02;;;5.60;;
19209;SDS011;9738;51.654;14.238;2022-08-14T07:19:49;6.85;;;5.85;;
19209;SDS011;9738;51.654;14.238;2022-08-14T07:22:15;6.50;;;5.82;;
19209;SDS011;9738;51.654;14.238;2022-08-14T07:24:41;5.57;;;5.00;;
19209;SDS011;9738;51.654;14.238;2022-08-14T07:27:07;5.90;;;4.90;;
19209;SDS011;9738;51.654;14.238;2022-08-14T07:29:33;6.85;;;4.90;;
19209;SDS011;9738;51.654;14.238;2022-08-14T07:31:59;5.80;;;5.20;;
19209;SDS011;9738;51.654;14.238;2022-08-14T07:34:25;8.32;;;5.00;;
19209;SDS011;9738;51.654;14.238;2022-08-14T07:36:50;5.20;;;4.53;;
19209;SDS011;9738;51.654;14.238;2022-08-14T07:39:17;5.03;;;3.92;;
19209;SDS011;9738;51.654;14.238;2022-08-14T07:41:43;4.88;;;4.25;;
19209;SDS011;9738;51.654;14.238;2022-08-14T07:44:09;5.18;;;4.18;;
19209;SDS011;9738;51.654;14.238;2022-08-14T07:46:39;4.80;;;4.40;;
19209;SDS011;9738;51.654;14.238;2022-08-14T07:49:05;5.50;;;5.00;;
19209;SDS011;9738;51.654;14.238;2022-08-14T07:51:32;4.45;;;4.03;;
19209;SDS011;9738;51.654;14.238;2022-08-14T07:53:58;5.20;;;4.70;;
19209;SDS011;9738;51.654;14.238;2022-08-14T07:56:24;5.82;;;5.15;;
19209;SDS011;9738;51.654;14.238;2022-08-14T07:58:50;5.13;;;4.22;;
19209;SDS011;9738;51.654;14.238;2022-08-14T08:01:17;5.18;;;4.70;;
19209;SDS011;9738;51.654;14.238;2022-08-14T08:03:47;4.15;;;3.55;;
19209;SDS011;9738;51.654;14.238;2022-08-14T08:06:15;3.85;;;3.45;;
19209;SDS011;9738;51.654;14.238;2022-08-14T08:08:42;4.30;;;3.90;;
19209;SDS011;9738;51.654;14.238;2022-08-14T08:11:10;3.50;;;3.20;;
19209;SDS011;9738;51.654;14.238;2022-08-14T08:13:39;4.95;;;3.83;;
19209;SDS011;9738;51.654;14.238;2022-08-14T08:16:07;6.65;;;4.43;;
19209;SDS011;9738;51.654;14.238;2022-08-14T08:18:33;4.28;;;3.88;;
19209;SDS011;9738;51.654;14.238;2022-08-14T08:20:59;4.00;;;3.60;;
19209;SDS011;9738;51.654;14.238;2022-08-14T08:23:27;3.92;;;3.63;;
19209;SDS011;9738;51.654;14.238;2022-08-14T08:25:54;4.07;;;3.65;;
19209;SDS011;9738;51.654;14.238;2022-08-14T08:28:23;4.57;;;3.80;;
19209;SDS011;9738;51.654;14.238;2022-08-14T08:30:54;4.45;;;3.88;;
19209;SDS011;9738;51.654;14.238;2022-08-14T08:33:23;3.78;;;3.47;;
19209;SDS011;9738;51.654;14.238;2022-08-14T08:35:53;4.05;;;3.65;;
19209;SDS011;9738;51.654;14.238;2022-08-14T08:38:23;4.30;;;3.58;;
19209;SDS011;9738;51.654;14.238;2022-08-14T08:40:51;4.13;;;3.70;;
19209;SDS011;9738;51.654;14.238;2022-08-14T08:43:31;3.78;;;3.47;;
19209;SDS011;9738;51.654;14.238;2022-08-14T08:46:01;4.75;;;4.35;;
19209;SDS011;9738;51.654;14.238;2022-08-14T08:48:45;4.40;;;4.00;;
19209;SDS011;9738;51.654;14.238;2022-08-14T08:53:59;3.60;;;3.30;;
19209;SDS011;9738;51.654;14.238;2022-08-14T08:56:32;4.07;;;3.67;;
19209;SDS011;9738;51.654;14.238;2022-08-14T08:58:59;4.25;;;3.88;;
19209;SDS011;9738;51.654;14.238;2022-08-14T09:01:26;4.10;;;3.72;;
19209;SDS011;9738;51.654;14.238;2022-08-14T09:04:04;5.00;;;3.70;;
19209;SDS011;9738;51.654;14.238;2022-08-14T09:06:30;4.15;;;3.75;;
19209;SDS011;9738;51.654;14.238;2022-08-14T09:08:56;4.00;;;3.60;;
19209;SDS011;9738;51.654;14.238;2022-08-14T09:11:22;4.18;;;3.78;;
19209;SDS011;9738;51.654;14.238;2022-08-14T09:13:49;5.30;;;4.05;;
19209;SDS011;9738;51.654;14.238;2022-08-14T09:16:20;4.00;;;3.70;;
19209;SDS011;9738;51.654;14.238;2022-08-14T09:18:46;5.20;;;3.90;;
19209;SDS011;9738;51.654;14.238;2022-08-14T09:21:13;4.68;;;4.13;;
19209;SDS011;9738;51.654;14.238;2022-08-14T09:23:39;4.75;;;4.25;;
19209;SDS011;9738;51.654;14.238;2022-08-14T09:26:06;4.28;;;3.88;;
19209;SDS011;9738;51.654;14.238;2022-08-14T09:28:32;4.30;;;3.90;;
19209;SDS011;9738;51.654;14.238;2022-08-14T09:30:58;5.85;;;4.13;;
19209;SDS011;9738;51.654;14.238;2022-08-14T09:33:28;4.50;;;4.10;;
19209;SDS011;9738;51.654;14.238;2022-08-14T09:36:15;4.22;;;3.83;;
19209;SDS011;9738;51.654;14.238;2022-08-14T09:47:47;4.38;;;3.97;;
19209;SDS011;9738;51.654;14.238;2022-08-14T09:51:00;4.13;;;3.72;;
19209;SDS011;9738;51.654;14.238;2022-08-14T09:56:12;4.80;;;4.00;;
19209;SDS011;9738;51.654;14.238;2022-08-14T09:58:40;3.70;;;3.40;;
19209;SDS011;9738;51.654;14.238;2022-08-14T10:01:12;4.97;;;3.30;;
19209;SDS011;9738;51.654;14.238;2022-08-14T10:03:53;4.00;;;3.50;;
19209;SDS011;9738;51.654;14.238;2022-08-14T10:06:21;3.75;;;3.42;;
19209;SDS011;9738;51.654;14.238;2022-08-14T10:11:31;4.38;;;3.97;;
19209;SDS011;9738;51.654;14.238;2022-08-14T10:14:15;3.90;;;3.50;;
19209;SDS011;9738;51.654;14.238;2022-08-14T10:16:44;5.45;;;4.15;;
19209;SDS011;9738;51.654;14.238;2022-08-14T10:19:13;3.60;;;3.30;;
19209;SDS011;9738;51.654;14.238;2022-08-14T10:21:41;3.88;;;3.58;;
19209;SDS011;9738;51.654;14.238;2022-08-14T10:24:09;3.70;;;3.40;;
19209;SDS011;9738;51.654;14.238;2022-08-14T10:26:36;4.50;;;3.53;;
19209;SDS011;9738;51.654;14.238;2022-08-14T10:29:09;3.40;;;3.10;;
19209;SDS011;9738;51.654;14.238;2022-08-14T10:31:37;3.42;;;3.13;;
19209;SDS011;9738;51.654;14.238;2022-08-14T10:34:05;3.25;;;2.95;;
19209;SDS011;9738;51.654;14.238;2022-08-14T10:36:34;2.92;;;2.72;;
19209;SDS011;9738;51.654;14.238;2022-08-14T10:39:15;3.83;;;3.42;;
19209;SDS011;9738;51.654;14.238;2022-08-14T10:41:47;3.22;;;2.95;;
19209;SDS011;9738;51.654;14.238;2022-08-14T10:44:15;3.17;;;2.88;;
19209;SDS011;9738;51.654;14.238;2022-08-14T10:46:43;3.42;;;3.13;;
19209;SDS011;9738;51.654;14.238;2022-08-14T10:49:16;3.15;;;2.85;;
19209;SDS011;9738;51.654;14.238;2022-08-14T10:54:40;3.45;;;3.15;;
19209;SDS011;9738;51.654;14.238;2022-08-14T10:57:10;3.13;;;2.88;;
19209;SDS011;9738;51.654;14.238;2022-08-14T10:59:40;3.00;;;2.78;;
19209;SDS011;9738;51.654;14.238;2022-08-14T11:02:24;3.47;;;3.17;;
19209;SDS011;9738;51.654;14.238;2022-08-14T11:10:24;3.13;;;2.85;;
19209;SDS011;9738;51.654;14.238;2022-08-14T11:13:26;4.95;;;3.20;;
19209;SDS011;9738;51.654;14.238;2022-08-14T11:15:56;3.10;;;2.80;;
19209;SDS011;9738;51.654;14.238;2022-08-14T11:18:26;3.60;;;3.30;;
19209;SDS011;9738;51.654;14.238;2022-08-14T11:20:56;3.15;;;2.75;;
19209;SDS011;9738;51.654;14.238;2022-08-14T11:23:27;2.97;;;2.78;;
19209;SDS011;9738;51.654;14.238;2022-08-14T11:25:59;4.38;;;3.38;;
19209;SDS011;9738;51.654;14.238;2022-08-14T11:28:26;3.60;;;3.30;;
19209;SDS011;9738;51.654;14.238;2022-08-14T11:30:56;3.33;;;3.03;;
19209;SDS011;9738;51.654;14.238;2022-08-14T11:33:24;3.63;;;3.30;;
19209;SDS011;9738;51.654;14.238;2022-08-14T11:35:55;3.33;;;3.03;;
19209;SDS011;9738;51.654;14.238;2022-08-14T11:38:25;6.93;;;2.85;;
19209;SDS011;9738;51.654;14.238;2022-08-14T11:40:55;3.50;;;3.20;;
19209;SDS011;9738;51.654;14.238;2022-08-14T11:43:22;3.00;;;2.70;;
19209;SDS011;9738;51.654;14.238;2022-08-14T11:45:50;3.28;;;2.97;;
19209;SDS011;9738;51.654;14.238;2022-08-14T11:48:23;3.75;;;3.45;;
19209;SDS011;9738;51.654;14.238;2022-08-14T11:50:51;4.00;;;3.17;;
19209;SDS011;9738;51.654;14.238;2022-08-14T11:53:27;3.63;;;3.33;;
19209;SDS011;9738;51.654;14.238;2022-08-14T11:55:56;3.40;;;3.10;;
19209;SDS011;9738;51.654;14.238;2022-08-14T11:58:28;3.50;;;3.20;;
19209;SDS011;9738;51.654;14.238;2022-08-14T12:01:00;5.22;;;3.78;;
19209;SDS011;9738;51.654;14.238;2022-08-14T12:03:41;3.90;;;3.53;;
19209;SDS011;9738;51.654;14.238;2022-08-14T12:06:12;3.67;;;3.28;;
19209;SDS011;9738;51.654;14.238;2022-08-14T12:08:39;3.78;;;3.40;;
19209;SDS011;9738;51.654;14.238;2022-08-14T12:11:11;3.65;;;3.35;;
19209;SDS011;9738;51.654;14.238;2022-08-14T12:13:39;3.45;;;3.15;;
19209;SDS011;9738;51.654;14.238;2022-08-14T12:16:07;6.90;;;3.90;;
19209;SDS011;9738;51.654;14.238;2022-08-14T12:18:36;3.50;;;3.20;;
19209;SDS011;9738;51.654;14.238;2022-08-14T12:21:11;3.10;;;2.90;;
19209;SDS011;9738;51.654;14.238;2022-08-14T12:23:40;3.55;;;3.10;;
19209;SDS011;9738;51.654;14.238;2022-08-14T12:26:07;2.83;;;2.63;;
19209;SDS011;9738;51.654;14.238;2022-08-14T12:28:37;3.30;;;3.00;;
19209;SDS011;9738;51.654;14.238;2022-08-14T12:31:17;3.13;;;2.83;;
19209;SDS011;9738;51.654;14.238;2022-08-14T12:33:55;3.28;;;2.97;;
19209;SDS011;9738;51.654;14.238;2022-08-14T12:36:21;3.25;;;2.80;;
19209;SDS011;9738;51.654;14.238;2022-08-14T12:38:48;3.05;;;2.85;;
19209;SDS011;9738;51.654;14.238;2022-08-14T12:41:17;3.65;;;3.10;;
19209;SDS011;9738;51.654;14.238;2022-08-14T12:43:53;3.08;;;2.80;;
19209;SDS011;9738;51.654;14.238;2022-08-14T12:48:49;4.25;;;3.58;;
19209;SDS011;9738;51.654;14.238;2022-08-14T12:51:16;3.53;;;3.10;;
19209;SDS011;9738;51.654;14.238;2022-08-14T12:53:44;3.42;;;3.03;;
19209;SDS011;9738;51.654;14.238;2022-08-14T12:56:10;4.70;;;3.05;;
19209;SDS011;9738;51.654;14.238;2022-08-14T12:58:37;3.22;;;2.92;;
19209;SDS011;9738;51.654;14.238;2022-08-14T13:01:07;3.72;;;3.42;;
19209;SDS011;9738;51.654;14.238;2022-08-14T13:03:33;3.63;;;3.33;;
19209;SDS011;9738;51.654;14.238;2022-08-14T13:06:00;3.70;;;3.40;;
19209;SDS011;9738;51.654;14.238;2022-08-14T13:08:27;3.70;;;3.30;;
19209;SDS011;9738;51.654;14.238;2022-08-14T13:10:53;3.72;;;3.42;;
19209;SDS011;9738;51.654;14.238;2022-08-14T13:13:22;4.10;;;3.70;;
19209;SDS011;9738;51.654;14.238;2022-08-14T13:15:52;4.38;;;3.97;;
19209;SDS011;9738;51.654;14.238;2022-08-14T13:18:18;4.50;;;4.10;;
19209;SDS011;9738;51.654;14.238;2022-08-14T13:20:46;3.90;;;3.60;;
19209;SDS011;9738;51.654;14.238;2022-08-14T13:23:14;4.32;;;3.30;;
19209;SDS011;9738;51.654;14.238;2022-08-14T13:25:42;3.67;;;3.38;;
19209;SDS011;9738;51.654;14.238;2022-08-14T13:28:08;4.30;;;3.90;;
19209;SDS011;9738;51.654;14.238;2022-08-14T13:30:36;3.63;;;3.25;;
19209;SDS011;9738;51.654;14.238;2022-08-14T13:33:04;3.67;;;3.38;;
19209;SDS011;9738;51.654;14.238;2022-08-14T13:35:31;3.38;;;3.08;;
19209;SDS011;9738;51.654;14.238;2022-08-14T13:37:57;3.47;;;3.17;;
19209;SDS011;9738;51.654;14.238;2022-08-14T13:40:23;6.20;;;3.83;;
19209;SDS011;9738;51.654;14.238;2022-08-14T13:42:50;3.40;;;3.10;;
19209;SDS011;9738;51.654;14.238;2022-08-14T13:45:17;3.83;;;3.53;;
19209;SDS011;9738;51.654;14.238;2022-08-14T13:47:45;3.33;;;2.97;;
19209;SDS011;9738;51.654;14.238;2022-08-14T13:50:12;3.58;;;3.25;;
19209;SDS011;9738;51.654;14.238;2022-08-14T13:52:44;3.40;;;3.10;;
19209;SDS011;9738;51.654;14.238;2022-08-14T13:55:17;3.50;;;3.15;;
19209;SDS011;9738;51.654;14.238;2022-08-14T13:57:43;3.78;;;3.40;;
19209;SDS011;9738;51.654;14.238;2022-08-14T14:00:11;3.28;;;2.92;;
19209;SDS011;9738;51.654;14.238;2022-08-14T14:02:42;3.00;;;2.70;;
19209;SDS011;9738;51.654;14.238;2022-08-14T14:05:10;3.30;;;2.85;;
19209;SDS011;9738;51.654;14.238;2022-08-14T14:07:39;3.13;;;2.83;;
19209;SDS011;9738;51.654;14.238;2022-08-14T14:10:11;3.80;;;3.22;;
19209;SDS011;9738;51.654;14.238;2022-08-14T14:12:38;3.38;;;2.80;;
19209;SDS011;9738;51.654;14.238;2022-08-14T14:15:04;3.10;;;2.80;;
19209;SDS011;9738;51.654;14.238;2022-08-14T14:17:36;3.25;;;2.95;;
19209;SDS011;9738;51.654;14.238;2022-08-14T14:20:03;3.15;;;2.88;;
19209;SDS011;9738;51.654;14.238;2022-08-14T14:22:32;4.22;;;3.10;;
19209;SDS011;9738;51.654;14.238;2022-08-14T14:24:57;2.60;;;2.40;;
19209;SDS011;9738;51.654;14.238;2022-08-14T14:27:27;4.03;;;2.97;;
19209;SDS011;9738;51.654;14.238;2022-08-14T14:29:56;2.90;;;2.67;;
19209;SDS011;9738;51.654;14.238;2022-08-14T14:32:27;2.90;;;2.58;;
19209;SDS011;9738;51.654;14.238;2022-08-14T14:34:59;3.13;;;2.80;;
19209;SDS011;9738;51.654;14.238;2022-08-14T14:37:27;2.72;;;2.53;;
19209;SDS011;9738;51.654;14.238;2022-08-14T14:39:55;3.20;;;2.67;;
19209;SDS011;9738;51.654;14.238;2022-08-14T14:42:24;2.67;;;2.47;;
19209;SDS011;9738;51.654;14.238;2022-08-14T14:44:53;2.92;;;2.60;;
19209;SDS011;9738;51.654;14.238;2022-08-14T14:47:24;2.97;;;2.78;;
19209;SDS011;9738;51.654;14.238;2022-08-14T14:49:51;3.60;;;2.50;;
19209;SDS011;9738;51.654;14.238;2022-08-14T14:52:17;2.72;;;2.53;;
19209;SDS011;9738;51.654;14.238;2022-08-14T14:54:48;3.88;;;2.78;;
19209;SDS011;9738;51.654;14.238;2022-08-14T14:57:15;3.40;;;3.10;;
19209;SDS011;9738;51.654;14.238;2022-08-14T14:59:41;2.80;;;2.47;;
19209;SDS011;9738;51.654;14.238;2022-08-14T15:02:08;3.78;;;3.35;;
19209;SDS011;9738;51.654;14.238;2022-08-14T15:04:41;2.80;;;2.60;;
19209;SDS011;9738;51.654;14.238;2022-08-14T15:07:09;3.38;;;2.70;;
19209;SDS011;9738;51.654;14.238;2022-08-14T15:09:35;2.88;;;2.58;;
19209;SDS011;9738;51.654;14.238;2022-08-14T15:12:01;2.95;;;2.72;;
19209;SDS011;9738;51.654;14.238;2022-08-14T15:14:28;3.03;;;2.65;;
19209;SDS011;9738;51.654;14.238;2022-08-14T15:16:54;5.10;;;3.08;;
19209;SDS011;9738;51.654;14.238;2022-08-14T15:19:20;2.45;;;2.25;;
19209;SDS011;9738;51.654;14.238;2022-08-14T15:21:47;2.53;;;2.30;;
19209;SDS011;9738;51.654;14.238;2022-08-14T15:24:14;2.75;;;2.55;;